sensor_id;sensor_type;location;lat;lon;timestamp;P1;durP1;ratioP1;P2;durP2;ratioP2
7263;SDS011;3673;52.480;13.348;2024-02-26T00:01:50;15.70;;;7.80;;
7263;SDS011;3673;52.480;13.348;2024-02-26T00:04:17;11.93;;;6.93;;
7263;SDS011;3673;52.480;13.348;2024-02-26T00:06:44;11.75;;;6.97;;
7263;SDS011;3673;52.480;13.348;2024-02-26T00:09:11;14.75;;;8.00;;
7263;SDS011;3673;52.480;13.348;2024-02-26T00:11:37;17.38;;;8.85;;
7263;SDS011;3673;52.480;13.348;2024-02-26T00:14:04;14.90;;;8.90;;
7263;SDS011;3673;52.480;13.348;2024-02-26T00:16:32;15.35;;;8.25;;
7263;SDS011;3673;52.480;13.348;2024-02-26T00:18:59;16.00;;;7.72;;
7263;SDS011;3673;52.480;13.348;2024-02-26T00:21:26;16.95;;;10.50;;
7263;SDS011;3673;52.480;13.348;2024-02-26T00:23:53;17.23;;;8.88;;
7263;SDS011;3673;52.480;13.348;2024-02-26T00:26:20;16.95;;;9.20;;
7263;SDS011;3673;52.480;13.348;2024-02-26T00:28:47;16.13;;;9.23;;
7263;SDS011;3673;52.480;13.348;2024-02-26T00:31:14;16.77;;;8.80;;
7263;SDS011;3673;52.480;13.348;2024-02-26T00:33:42;15.40;;;9.63;;
7263;SDS011;3673;52.480;13.348;2024-02-26T00:36:09;14.25;;;9.38;;
7263;SDS011;3673;52.480;13.348;2024-02-26T00:38:35;14.95;;;9.35;;
7263;SDS011;3673;52.480;13.348;2024-02-26T00:41:04;16.42;;;9.32;;
7263;SDS011;3673;52.480;13.348;2024-02-26T00:43:31;16.73;;;9.45;;
7263;SDS011;3673;52.480;13.348;2024-02-26T00:45:57;14.52;;;9.35;;
7263;SDS011;3673;52.480;13.348;2024-02-26T00:48:24;18.20;;;9.18;;
7263;SDS011;3673;52.480;13.348;2024-02-26T00:50:53;14.18;;;8.68;;
7263;SDS011;3673;52.480;13.348;2024-02-26T00:53:19;16.90;;;9.80;;
7263;SDS011;3673;52.480;13.348;2024-02-26T00:55:46;18.00;;;9.02;;
7263;SDS011;3673;52.480;13.348;2024-02-26T00:58:13;12.63;;;8.82;;
7263;SDS011;3673;52.480;13.348;2024-02-26T01:00:39;14.07;;;8.13;;
7263;SDS011;3673;52.480;13.348;2024-02-26T01:03:06;16.38;;;9.65;;
7263;SDS011;3673;52.480;13.348;2024-02-26T01:05:34;13.88;;;8.98;;
7263;SDS011;3673;52.480;13.348;2024-02-26T01:08:04;23.85;;;14.38;;
7263;SDS011;3673;52.480;13.348;2024-02-26T01:10:31;21.48;;;13.48;;
7263;SDS011;3673;52.480;13.348;2024-02-26T01:12:59;15.55;;;9.82;;
7263;SDS011;3673;52.480;13.348;2024-02-26T01:15:26;18.75;;;8.32;;
7263;SDS011;3673;52.480;13.348;2024-02-26T01:17:53;16.13;;;8.52;;
7263;SDS011;3673;52.480;13.348;2024-02-26T01:20:20;13.73;;;8.88;;
7263;SDS011;3673;52.480;13.348;2024-02-26T01:22:46;15.10;;;10.15;;
7263;SDS011;3673;52.480;13.348;2024-02-26T01:25:15;16.13;;;9.48;;
7263;SDS011;3673;52.480;13.348;2024-02-26T01:27:42;13.82;;;9.07;;
7263;SDS011;3673;52.480;13.348;2024-02-26T01:30:09;14.38;;;9.32;;
7263;SDS011;3673;52.480;13.348;2024-02-26T01:32:37;15.45;;;9.25;;
7263;SDS011;3673;52.480;13.348;2024-02-26T01:35:04;13.32;;;9.35;;
7263;SDS011;3673;52.480;13.348;2024-02-26T01:37:35;15.80;;;9.38;;
7263;SDS011;3673;52.480;13.348;2024-02-26T01:40:02;14.52;;;9.00;;
7263;SDS011;3673;52.480;13.348;2024-02-26T01:42:31;14.20;;;8.10;;
7263;SDS011;3673;52.480;13.348;2024-02-26T01:44:58;19.08;;;7.65;;
7263;SDS011;3673;52.480;13.348;2024-02-26T01:47:24;13.73;;;7.20;;
7263;SDS011;3673;52.480;13.348;2024-02-26T01:49:52;10.90;;;7.90;;
7263;SDS011;3673;52.480;13.348;2024-02-26T01:52:19;11.05;;;7.95;;
7263;SDS011;3673;52.480;13.348;2024-02-26T01:54:47;16.27;;;8.82;;
7263;SDS011;3673;52.480;13.348;2024-02-26T01:57:15;13.57;;;8.02;;
7263;SDS011;3673;52.480;13.348;2024-02-26T01:59:43;15.63;;;8.18;;
7263;SDS011;3673;52.480;13.348;2024-02-26T02:02:10;11.63;;;8.00;;
7263;SDS011;3673;52.480;13.348;2024-02-26T02:04:38;10.60;;;7.90;;
7263;SDS011;3673;52.480;13.348;2024-02-26T02:07:05;15.18;;;8.27;;
7263;SDS011;3673;52.480;13.348;2024-02-26T02:09:33;13.35;;;8.32;;
7263;SDS011;3673;52.480;13.348;2024-02-26T02:11:59;11.57;;;8.48;;
7263;SDS011;3673;52.480;13.348;2024-02-26T02:14:27;12.68;;;8.95;;
7263;SDS011;3673;52.480;13.348;2024-02-26T02:16:55;11.63;;;7.80;;
7263;SDS011;3673;52.480;13.348;2024-02-26T02:19:21;13.75;;;7.78;;
7263;SDS011;3673;52.480;13.348;2024-02-26T02:21:49;11.35;;;7.85;;
7263;SDS011;3673;52.480;13.348;2024-02-26T02:24:16;13.13;;;8.38;;
7263;SDS011;3673;52.480;13.348;2024-02-26T02:26:43;11.70;;;7.88;;
7263;SDS011;3673;52.480;13.348;2024-02-26T02:29:10;13.73;;;8.02;;
7263;SDS011;3673;52.480;13.348;2024-02-26T02:31:38;14.55;;;8.25;;
7263;SDS011;3673;52.480;13.348;2024-02-26T02:34:06;11.45;;;7.07;;
7263;SDS011;3673;52.480;13.348;2024-02-26T02:36:35;15.55;;;9.27;;
7263;SDS011;3673;52.480;13.348;2024-02-26T02:39:16;11.05;;;6.90;;
7263;SDS011;3673;52.480;13.348;2024-02-26T02:41:43;11.60;;;6.35;;
7263;SDS011;3673;52.480;13.348;2024-02-26T02:44:10;8.68;;;6.05;;
7263;SDS011;3673;52.480;13.348;2024-02-26T02:46:37;8.30;;;5.88;;
7263;SDS011;3673;52.480;13.348;2024-02-26T02:49:04;9.68;;;5.80;;
7263;SDS011;3673;52.480;13.348;2024-02-26T02:51:34;9.82;;;5.93;;
7263;SDS011;3673;52.480;13.348;2024-02-26T02:54:01;8.73;;;6.00;;
7263;SDS011;3673;52.480;13.348;2024-02-26T02:56:29;10.15;;;6.18;;
7263;SDS011;3673;52.480;13.348;2024-02-26T02:58:56;10.30;;;6.25;;
7263;SDS011;3673;52.480;13.348;2024-02-26T03:01:22;8.15;;;6.20;;
7263;SDS011;3673;52.480;13.348;2024-02-26T03:03:49;8.90;;;5.60;;
7263;SDS011;3673;52.480;13.348;2024-02-26T03:06:16;10.05;;;6.10;;
7263;SDS011;3673;52.480;13.348;2024-02-26T03:08:43;9.13;;;5.82;;
7263;SDS011;3673;52.480;13.348;2024-02-26T03:11:12;7.03;;;5.70;;
7263;SDS011;3673;52.480;13.348;2024-02-26T03:13:41;7.18;;;5.03;;
7263;SDS011;3673;52.480;13.348;2024-02-26T03:16:08;8.57;;;6.03;;
7263;SDS011;3673;52.480;13.348;2024-02-26T03:18:35;7.88;;;5.60;;
7263;SDS011;3673;52.480;13.348;2024-02-26T03:21:04;6.93;;;5.40;;
7263;SDS011;3673;52.480;13.348;2024-02-26T03:23:30;15.68;;;9.65;;
7263;SDS011;3673;52.480;13.348;2024-02-26T03:26:01;12.45;;;7.53;;
7263;SDS011;3673;52.480;13.348;2024-02-26T03:28:28;31.17;;;16.55;;
7263;SDS011;3673;52.480;13.348;2024-02-26T03:30:57;14.98;;;7.80;;
7263;SDS011;3673;52.480;13.348;2024-02-26T03:33:23;14.77;;;8.88;;
7263;SDS011;3673;52.480;13.348;2024-02-26T03:35:50;10.20;;;6.22;;
7263;SDS011;3673;52.480;13.348;2024-02-26T03:38:17;8.85;;;6.03;;
7263;SDS011;3673;52.480;13.348;2024-02-26T03:40:44;10.52;;;6.00;;
7263;SDS011;3673;52.480;13.348;2024-02-26T03:43:10;8.50;;;5.80;;
7263;SDS011;3673;52.480;13.348;2024-02-26T03:45:37;10.43;;;6.15;;
7263;SDS011;3673;52.480;13.348;2024-02-26T03:48:06;10.63;;;5.30;;
7263;SDS011;3673;52.480;13.348;2024-02-26T03:50:33;9.75;;;5.82;;
7263;SDS011;3673;52.480;13.348;2024-02-26T03:53:00;7.60;;;5.60;;
7263;SDS011;3673;52.480;13.348;2024-02-26T03:55:26;7.20;;;5.30;;
7263;SDS011;3673;52.480;13.348;2024-02-26T03:57:52;6.82;;;5.45;;
7263;SDS011;3673;52.480;13.348;2024-02-26T04:00:19;7.35;;;5.53;;
7263;SDS011;3673;52.480;13.348;2024-02-26T04:02:46;7.55;;;5.47;;
7263;SDS011;3673;52.480;13.348;2024-02-26T04:05:15;7.57;;;5.63;;
7263;SDS011;3673;52.480;13.348;2024-02-26T04:07:42;10.52;;;6.47;;
7263;SDS011;3673;52.480;13.348;2024-02-26T04:10:09;9.00;;;6.22;;
7263;SDS011;3673;52.480;13.348;2024-02-26T04:12:37;6.78;;;5.55;;
7263;SDS011;3673;52.480;13.348;2024-02-26T04:15:06;8.27;;;6.18;;
7263;SDS011;3673;52.480;13.348;2024-02-26T04:17:34;10.07;;;6.20;;
7263;SDS011;3673;52.480;13.348;2024-02-26T04:20:01;7.72;;;6.10;;
7263;SDS011;3673;52.480;13.348;2024-02-26T04:22:29;10.10;;;6.50;;
7263;SDS011;3673;52.480;13.348;2024-02-26T04:24:56;9.73;;;5.95;;
7263;SDS011;3673;52.480;13.348;2024-02-26T04:27:23;10.70;;;5.95;;
7263;SDS011;3673;52.480;13.348;2024-02-26T04:29:50;9.30;;;6.47;;
7263;SDS011;3673;52.480;13.348;2024-02-26T04:32:16;7.95;;;5.45;;
7263;SDS011;3673;52.480;13.348;2024-02-26T04:34:43;8.00;;;6.68;;
7263;SDS011;3673;52.480;13.348;2024-02-26T04:37:10;9.88;;;6.55;;
7263;SDS011;3673;52.480;13.348;2024-02-26T04:39:38;9.77;;;6.63;;
7263;SDS011;3673;52.480;13.348;2024-02-26T04:42:05;8.80;;;6.32;;
7263;SDS011;3673;52.480;13.348;2024-02-26T04:44:32;11.70;;;7.00;;
7263;SDS011;3673;52.480;13.348;2024-02-26T04:46:59;9.80;;;6.63;;
7263;SDS011;3673;52.480;13.348;2024-02-26T04:49:26;9.50;;;6.80;;
7263;SDS011;3673;52.480;13.348;2024-02-26T04:51:53;10.75;;;6.97;;
7263;SDS011;3673;52.480;13.348;2024-02-26T04:54:20;13.73;;;7.25;;
7263;SDS011;3673;52.480;13.348;2024-02-26T04:56:48;10.18;;;6.97;;
7263;SDS011;3673;52.480;13.348;2024-02-26T04:59:15;12.68;;;7.53;;
7263;SDS011;3673;52.480;13.348;2024-02-26T05:01:42;9.15;;;6.95;;
7263;SDS011;3673;52.480;13.348;2024-02-26T05:04:09;9.75;;;6.03;;
7263;SDS011;3673;52.480;13.348;2024-02-26T05:06:36;9.98;;;6.22;;
7263;SDS011;3673;52.480;13.348;2024-02-26T05:09:03;9.32;;;6.53;;
7263;SDS011;3673;52.480;13.348;2024-02-26T05:11:30;13.02;;;8.02;;
7263;SDS011;3673;52.480;13.348;2024-02-26T05:13:58;11.50;;;7.18;;
7263;SDS011;3673;52.480;13.348;2024-02-26T05:16:26;12.98;;;7.50;;
7263;SDS011;3673;52.480;13.348;2024-02-26T05:18:55;11.90;;;7.68;;
7263;SDS011;3673;52.480;13.348;2024-02-26T05:21:21;14.55;;;7.10;;
7263;SDS011;3673;52.480;13.348;2024-02-26T05:23:48;9.52;;;8.00;;
7263;SDS011;3673;52.480;13.348;2024-02-26T05:26:19;10.45;;;7.35;;
7263;SDS011;3673;52.480;13.348;2024-02-26T05:28:46;13.60;;;7.38;;
7263;SDS011;3673;52.480;13.348;2024-02-26T05:31:15;11.10;;;7.88;;
7263;SDS011;3673;52.480;13.348;2024-02-26T05:33:43;10.75;;;8.25;;
7263;SDS011;3673;52.480;13.348;2024-02-26T05:36:09;11.82;;;7.47;;
7263;SDS011;3673;52.480;13.348;2024-02-26T05:38:36;11.82;;;8.43;;
7263;SDS011;3673;52.480;13.348;2024-02-26T05:41:03;13.13;;;7.97;;
7263;SDS011;3673;52.480;13.348;2024-02-26T05:43:30;14.82;;;9.20;;
7263;SDS011;3673;52.480;13.348;2024-02-26T05:45:57;11.75;;;8.00;;
7263;SDS011;3673;52.480;13.348;2024-02-26T05:48:25;12.52;;;8.73;;
7263;SDS011;3673;52.480;13.348;2024-02-26T05:50:52;13.25;;;8.80;;
7263;SDS011;3673;52.480;13.348;2024-02-26T05:53:18;12.43;;;9.07;;
7263;SDS011;3673;52.480;13.348;2024-02-26T05:55:45;15.02;;;9.63;;
7263;SDS011;3673;52.480;13.348;2024-02-26T05:58:12;14.52;;;8.77;;
7263;SDS011;3673;52.480;13.348;2024-02-26T06:00:39;13.88;;;9.35;;
7263;SDS011;3673;52.480;13.348;2024-02-26T06:03:06;16.23;;;9.77;;
7263;SDS011;3673;52.480;13.348;2024-02-26T06:05:34;13.90;;;10.02;;
7263;SDS011;3673;52.480;13.348;2024-02-26T06:08:01;15.02;;;9.63;;
7263;SDS011;3673;52.480;13.348;2024-02-26T06:10:28;16.27;;;9.95;;
7263;SDS011;3673;52.480;13.348;2024-02-26T06:12:54;14.35;;;10.05;;
7263;SDS011;3673;52.480;13.348;2024-02-26T06:15:21;13.82;;;10.20;;
7263;SDS011;3673;52.480;13.348;2024-02-26T06:17:48;16.42;;;10.10;;
7263;SDS011;3673;52.480;13.348;2024-02-26T06:20:15;13.65;;;9.75;;
7263;SDS011;3673;52.480;13.348;2024-02-26T06:22:43;13.63;;;9.80;;
7263;SDS011;3673;52.480;13.348;2024-02-26T06:25:10;14.98;;;10.35;;
7263;SDS011;3673;52.480;13.348;2024-02-26T06:27:37;19.30;;;10.80;;
7263;SDS011;3673;52.480;13.348;2024-02-26T06:30:04;17.70;;;11.00;;
7263;SDS011;3673;52.480;13.348;2024-02-26T06:32:33;14.15;;;11.32;;
7263;SDS011;3673;52.480;13.348;2024-02-26T06:35:00;22.83;;;11.32;;
7263;SDS011;3673;52.480;13.348;2024-02-26T06:37:29;17.40;;;11.15;;
7263;SDS011;3673;52.480;13.348;2024-02-26T06:39:57;15.13;;;10.40;;
7263;SDS011;3673;52.480;13.348;2024-02-26T06:42:24;17.88;;;11.77;;
7263;SDS011;3673;52.480;13.348;2024-02-26T06:44:50;17.08;;;11.82;;
7263;SDS011;3673;52.480;13.348;2024-02-26T06:47:17;15.75;;;11.18;;
7263;SDS011;3673;52.480;13.348;2024-02-26T06:49:44;18.70;;;11.35;;
7263;SDS011;3673;52.480;13.348;2024-02-26T06:52:11;20.15;;;11.95;;
7263;SDS011;3673;52.480;13.348;2024-02-26T06:54:38;19.25;;;12.27;;
7263;SDS011;3673;52.480;13.348;2024-02-26T06:57:06;17.83;;;12.00;;
7263;SDS011;3673;52.480;13.348;2024-02-26T06:59:33;24.70;;;12.57;;
7263;SDS011;3673;52.480;13.348;2024-02-26T07:02:00;19.05;;;13.10;;
7263;SDS011;3673;52.480;13.348;2024-02-26T07:04:26;19.70;;;12.25;;
7263;SDS011;3673;52.480;13.348;2024-02-26T07:06:53;18.42;;;12.07;;
7263;SDS011;3673;52.480;13.348;2024-02-26T07:09:20;20.02;;;12.65;;
7263;SDS011;3673;52.480;13.348;2024-02-26T07:11:47;21.75;;;12.95;;
7263;SDS011;3673;52.480;13.348;2024-02-26T07:14:15;22.48;;;13.10;;
7263;SDS011;3673;52.480;13.348;2024-02-26T07:16:41;22.88;;;15.02;;
7263;SDS011;3673;52.480;13.348;2024-02-26T07:19:08;22.85;;;13.13;;
7263;SDS011;3673;52.480;13.348;2024-02-26T07:21:35;15.50;;;12.60;;
7263;SDS011;3673;52.480;13.348;2024-02-26T07:24:02;16.40;;;12.00;;
7263;SDS011;3673;52.480;13.348;2024-02-26T07:26:28;18.52;;;11.85;;
7263;SDS011;3673;52.480;13.348;2024-02-26T07:28:55;18.92;;;12.63;;
7263;SDS011;3673;52.480;13.348;2024-02-26T07:31:24;22.55;;;13.05;;
7263;SDS011;3673;52.480;13.348;2024-02-26T07:33:51;22.10;;;13.95;;
7263;SDS011;3673;52.480;13.348;2024-02-26T07:36:18;19.88;;;13.32;;
7263;SDS011;3673;52.480;13.348;2024-02-26T07:38:44;21.50;;;14.05;;
7263;SDS011;3673;52.480;13.348;2024-02-26T07:41:11;19.17;;;13.07;;
7263;SDS011;3673;52.480;13.348;2024-02-26T07:43:39;20.20;;;13.30;;
7263;SDS011;3673;52.480;13.348;2024-02-26T07:46:06;20.00;;;13.35;;
7263;SDS011;3673;52.480;13.348;2024-02-26T07:48:34;22.02;;;14.52;;
7263;SDS011;3673;52.480;13.348;2024-02-26T07:51:00;27.55;;;14.80;;
7263;SDS011;3673;52.480;13.348;2024-02-26T07:53:28;22.90;;;14.25;;
7263;SDS011;3673;52.480;13.348;2024-02-26T07:55:55;20.45;;;14.15;;
7263;SDS011;3673;52.480;13.348;2024-02-26T07:58:22;21.52;;;13.57;;
7263;SDS011;3673;52.480;13.348;2024-02-26T08:00:49;22.80;;;14.30;;
7263;SDS011;3673;52.480;13.348;2024-02-26T08:03:16;19.80;;;14.43;;
7263;SDS011;3673;52.480;13.348;2024-02-26T08:05:44;22.55;;;13.38;;
7263;SDS011;3673;52.480;13.348;2024-02-26T08:08:11;21.83;;;15.57;;
7263;SDS011;3673;52.480;13.348;2024-02-26T08:10:38;22.45;;;14.98;;
7263;SDS011;3673;52.480;13.348;2024-02-26T08:13:04;27.48;;;15.25;;
7263;SDS011;3673;52.480;13.348;2024-02-26T08:15:31;24.88;;;14.00;;
7263;SDS011;3673;52.480;13.348;2024-02-26T08:17:59;18.90;;;13.57;;
7263;SDS011;3673;52.480;13.348;2024-02-26T08:20:27;22.77;;;13.98;;
7263;SDS011;3673;52.480;13.348;2024-02-26T08:22:55;28.70;;;17.08;;
7263;SDS011;3673;52.480;13.348;2024-02-26T08:25:22;20.17;;;13.95;;
7263;SDS011;3673;52.480;13.348;2024-02-26T08:27:48;23.88;;;15.40;;
7263;SDS011;3673;52.480;13.348;2024-02-26T08:30:15;22.23;;;13.65;;
7263;SDS011;3673;52.480;13.348;2024-02-26T08:32:42;19.80;;;14.35;;
7263;SDS011;3673;52.480;13.348;2024-02-26T08:35:09;21.77;;;14.38;;
7263;SDS011;3673;52.480;13.348;2024-02-26T08:37:36;25.63;;;15.05;;
7263;SDS011;3673;52.480;13.348;2024-02-26T08:40:05;20.42;;;14.88;;
7263;SDS011;3673;52.480;13.348;2024-02-26T08:42:33;21.77;;;15.20;;
7263;SDS011;3673;52.480;13.348;2024-02-26T08:44:59;25.15;;;16.38;;
7263;SDS011;3673;52.480;13.348;2024-02-26T08:47:28;21.77;;;14.98;;
7263;SDS011;3673;52.480;13.348;2024-02-26T08:49:55;23.50;;;14.15;;
7263;SDS011;3673;52.480;13.348;2024-02-26T08:52:21;21.95;;;14.93;;
7263;SDS011;3673;52.480;13.348;2024-02-26T08:54:48;21.30;;;14.95;;
7263;SDS011;3673;52.480;13.348;2024-02-26T08:57:16;20.50;;;14.38;;
7263;SDS011;3673;52.480;13.348;2024-02-26T08:59:43;22.48;;;15.45;;
7263;SDS011;3673;52.480;13.348;2024-02-26T09:02:10;23.58;;;15.85;;
7263;SDS011;3673;52.480;13.348;2024-02-26T09:04:36;22.92;;;16.00;;
7263;SDS011;3673;52.480;13.348;2024-02-26T09:07:03;22.50;;;15.90;;
7263;SDS011;3673;52.480;13.348;2024-02-26T09:09:31;25.10;;;16.15;;
7263;SDS011;3673;52.480;13.348;2024-02-26T09:11:58;22.00;;;15.55;;
7263;SDS011;3673;52.480;13.348;2024-02-26T09:14:26;23.05;;;16.05;;
7263;SDS011;3673;52.480;13.348;2024-02-26T09:16:52;26.63;;;15.27;;
7263;SDS011;3673;52.480;13.348;2024-02-26T09:19:19;24.02;;;14.57;;
7263;SDS011;3673;52.480;13.348;2024-02-26T09:21:46;27.58;;;16.52;;
7263;SDS011;3673;52.480;13.348;2024-02-26T09:24:13;20.42;;;13.60;;
7263;SDS011;3673;52.480;13.348;2024-02-26T09:26:39;22.50;;;15.57;;
7263;SDS011;3673;52.480;13.348;2024-02-26T09:29:06;20.52;;;14.02;;
7263;SDS011;3673;52.480;13.348;2024-02-26T09:31:34;31.17;;;19.23;;
7263;SDS011;3673;52.480;13.348;2024-02-26T09:34:01;24.95;;;16.25;;
7263;SDS011;3673;52.480;13.348;2024-02-26T09:36:29;19.85;;;14.15;;
7263;SDS011;3673;52.480;13.348;2024-02-26T09:38:56;24.42;;;13.27;;
7263;SDS011;3673;52.480;13.348;2024-02-26T09:41:23;17.75;;;13.77;;
7263;SDS011;3673;52.480;13.348;2024-02-26T09:43:54;18.70;;;13.80;;
7263;SDS011;3673;52.480;13.348;2024-02-26T09:46:24;19.63;;;13.80;;
7263;SDS011;3673;52.480;13.348;2024-02-26T09:48:53;18.23;;;13.48;;
7263;SDS011;3673;52.480;13.348;2024-02-26T09:51:20;19.25;;;13.45;;
7263;SDS011;3673;52.480;13.348;2024-02-26T09:53:50;23.50;;;14.02;;
7263;SDS011;3673;52.480;13.348;2024-02-26T09:56:18;26.02;;;14.15;;
7263;SDS011;3673;52.480;13.348;2024-02-26T09:58:47;19.08;;;14.52;;
7263;SDS011;3673;52.480;13.348;2024-02-26T10:01:18;18.35;;;13.38;;
7263;SDS011;3673;52.480;13.348;2024-02-26T10:03:47;22.90;;;13.43;;
7263;SDS011;3673;52.480;13.348;2024-02-26T10:06:21;22.58;;;14.32;;
7263;SDS011;3673;52.480;13.348;2024-02-26T10:08:48;23.60;;;14.20;;
7263;SDS011;3673;52.480;13.348;2024-02-26T10:11:15;17.33;;;12.43;;
7263;SDS011;3673;52.480;13.348;2024-02-26T10:13:42;21.35;;;13.88;;
7263;SDS011;3673;52.480;13.348;2024-02-26T10:16:09;20.08;;;12.57;;
7263;SDS011;3673;52.480;13.348;2024-02-26T10:18:45;21.27;;;14.25;;
7263;SDS011;3673;52.480;13.348;2024-02-26T10:21:14;30.05;;;13.75;;
7263;SDS011;3673;52.480;13.348;2024-02-26T10:23:42;21.92;;;13.85;;
7263;SDS011;3673;52.480;13.348;2024-02-26T10:26:10;26.90;;;14.50;;
7263;SDS011;3673;52.480;13.348;2024-02-26T10:28:38;19.55;;;12.68;;
7263;SDS011;3673;52.480;13.348;2024-02-26T10:31:06;25.52;;;13.52;;
7263;SDS011;3673;52.480;13.348;2024-02-26T10:33:34;18.52;;;13.10;;
7263;SDS011;3673;52.480;13.348;2024-02-26T10:36:02;22.92;;;14.07;;
7263;SDS011;3673;52.480;13.348;2024-02-26T10:38:31;29.05;;;14.27;;
7263;SDS011;3673;52.480;13.348;2024-02-26T10:40:58;22.00;;;12.27;;
7263;SDS011;3673;52.480;13.348;2024-02-26T10:43:25;17.13;;;11.48;;
7263;SDS011;3673;52.480;13.348;2024-02-26T10:45:54;18.40;;;11.63;;
7263;SDS011;3673;52.480;13.348;2024-02-26T10:48:21;15.88;;;10.98;;
7263;SDS011;3673;52.480;13.348;2024-02-26T10:50:48;15.07;;;10.65;;
7263;SDS011;3673;52.480;13.348;2024-02-26T10:53:17;14.80;;;10.30;;
7263;SDS011;3673;52.480;13.348;2024-02-26T10:55:48;19.30;;;10.70;;
7263;SDS011;3673;52.480;13.348;2024-02-26T10:58:20;16.13;;;10.93;;
7263;SDS011;3673;52.480;13.348;2024-02-26T11:00:50;25.30;;;15.23;;
7263;SDS011;3673;52.480;13.348;2024-02-26T11:03:17;19.90;;;13.50;;
7263;SDS011;3673;52.480;13.348;2024-02-26T11:05:46;24.25;;;13.48;;
7263;SDS011;3673;52.480;13.348;2024-02-26T11:08:15;17.30;;;12.57;;
7263;SDS011;3673;52.480;13.348;2024-02-26T11:10:44;20.02;;;12.32;;
7263;SDS011;3673;52.480;13.348;2024-02-26T11:13:17;14.40;;;10.23;;
7263;SDS011;3673;52.480;13.348;2024-02-26T11:15:46;16.80;;;10.77;;
7263;SDS011;3673;52.480;13.348;2024-02-26T11:18:14;20.58;;;13.18;;
7263;SDS011;3673;52.480;13.348;2024-02-26T11:20:42;14.93;;;10.73;;
7263;SDS011;3673;52.480;13.348;2024-02-26T11:23:09;16.15;;;11.35;;
7263;SDS011;3673;52.480;13.348;2024-02-26T11:25:36;16.98;;;10.85;;
7263;SDS011;3673;52.480;13.348;2024-02-26T11:28:07;18.77;;;12.93;;
7263;SDS011;3673;52.480;13.348;2024-02-26T11:30:41;13.13;;;9.93;;
7263;SDS011;3673;52.480;13.348;2024-02-26T11:33:11;12.50;;;8.98;;
7263;SDS011;3673;52.480;13.348;2024-02-26T11:35:40;16.00;;;9.80;;
7263;SDS011;3673;52.480;13.348;2024-02-26T11:38:07;16.92;;;10.57;;
7263;SDS011;3673;52.480;13.348;2024-02-26T11:40:37;16.15;;;10.05;;
7263;SDS011;3673;52.480;13.348;2024-02-26T11:43:07;18.42;;;10.05;;
7263;SDS011;3673;52.480;13.348;2024-02-26T11:45:49;14.73;;;8.80;;
7263;SDS011;3673;52.480;13.348;2024-02-26T11:48:21;12.27;;;8.82;;
7263;SDS011;3673;52.480;13.348;2024-02-26T11:50:50;14.18;;;9.82;;
7263;SDS011;3673;52.480;13.348;2024-02-26T11:53:25;15.82;;;8.98;;
7263;SDS011;3673;52.480;13.348;2024-02-26T11:58:49;16.70;;;9.50;;
7263;SDS011;3673;52.480;13.348;2024-02-26T12:01:35;12.73;;;9.07;;
7263;SDS011;3673;52.480;13.348;2024-02-26T12:04:07;12.82;;;9.15;;
7263;SDS011;3673;52.480;13.348;2024-02-26T12:06:40;13.05;;;8.57;;
7263;SDS011;3673;52.480;13.348;2024-02-26T12:09:09;11.63;;;8.82;;
7263;SDS011;3673;52.480;13.348;2024-02-26T12:11:39;12.95;;;8.00;;
7263;SDS011;3673;52.480;13.348;2024-02-26T12:14:09;14.80;;;9.55;;
7263;SDS011;3673;52.480;13.348;2024-02-26T12:16:36;13.02;;;8.55;;
7263;SDS011;3673;52.480;13.348;2024-02-26T12:19:05;14.35;;;8.73;;
7263;SDS011;3673;52.480;13.348;2024-02-26T12:21:34;15.05;;;10.35;;
7263;SDS011;3673;52.480;13.348;2024-02-26T12:24:12;12.95;;;9.65;;
7263;SDS011;3673;52.480;13.348;2024-02-26T12:26:41;19.10;;;12.13;;
7263;SDS011;3673;52.480;13.348;2024-02-26T12:29:09;20.75;;;14.35;;
7263;SDS011;3673;52.480;13.348;2024-02-26T12:31:36;13.45;;;10.10;;
7263;SDS011;3673;52.480;13.348;2024-02-26T12:34:05;12.85;;;9.45;;
7263;SDS011;3673;52.480;13.348;2024-02-26T12:36:34;15.25;;;10.45;;
7263;SDS011;3673;52.480;13.348;2024-02-26T12:39:01;19.00;;;10.18;;
7263;SDS011;3673;52.480;13.348;2024-02-26T12:41:30;15.18;;;10.55;;
7263;SDS011;3673;52.480;13.348;2024-02-26T12:43:57;15.57;;;10.38;;
7263;SDS011;3673;52.480;13.348;2024-02-26T12:46:26;14.25;;;10.23;;
7263;SDS011;3673;52.480;13.348;2024-02-26T12:48:55;12.93;;;9.90;;
7263;SDS011;3673;52.480;13.348;2024-02-26T12:51:23;16.75;;;11.02;;
7263;SDS011;3673;52.480;13.348;2024-02-26T12:53:51;16.45;;;10.90;;
7263;SDS011;3673;52.480;13.348;2024-02-26T12:56:19;13.23;;;10.52;;
7263;SDS011;3673;52.480;13.348;2024-02-26T12:58:47;17.60;;;11.60;;
7263;SDS011;3673;52.480;13.348;2024-02-26T13:01:17;12.82;;;9.40;;
7263;SDS011;3673;52.480;13.348;2024-02-26T13:03:49;15.30;;;9.15;;
7263;SDS011;3673;52.480;13.348;2024-02-26T13:06:17;12.15;;;8.40;;
7263;SDS011;3673;52.480;13.348;2024-02-26T13:08:44;9.65;;;7.88;;
7263;SDS011;3673;52.480;13.348;2024-02-26T13:11:11;15.35;;;8.25;;
7263;SDS011;3673;52.480;13.348;2024-02-26T13:13:38;11.18;;;7.65;;
7263;SDS011;3673;52.480;13.348;2024-02-26T13:16:06;11.75;;;8.00;;
7263;SDS011;3673;52.480;13.348;2024-02-26T13:18:36;10.30;;;7.78;;
7263;SDS011;3673;52.480;13.348;2024-02-26T13:21:08;10.00;;;7.55;;
7263;SDS011;3673;52.480;13.348;2024-02-26T13:23:37;11.77;;;7.53;;
7263;SDS011;3673;52.480;13.348;2024-02-26T13:26:04;9.07;;;6.65;;
7263;SDS011;3673;52.480;13.348;2024-02-26T13:28:31;7.93;;;6.15;;
7263;SDS011;3673;52.480;13.348;2024-02-26T13:30:58;8.32;;;5.68;;
7263;SDS011;3673;52.480;13.348;2024-02-26T13:33:26;9.02;;;6.40;;
7263;SDS011;3673;52.480;13.348;2024-02-26T13:35:54;7.63;;;5.68;;
7263;SDS011;3673;52.480;13.348;2024-02-26T13:38:23;11.02;;;6.75;;
7263;SDS011;3673;52.480;13.348;2024-02-26T13:40:50;13.30;;;6.43;;
7263;SDS011;3673;52.480;13.348;2024-02-26T13:43:18;7.45;;;5.10;;
7263;SDS011;3673;52.480;13.348;2024-02-26T13:45:45;8.68;;;5.38;;
7263;SDS011;3673;52.480;13.348;2024-02-26T13:48:12;5.82;;;4.75;;
7263;SDS011;3673;52.480;13.348;2024-02-26T13:50:40;6.93;;;5.32;;
7263;SDS011;3673;52.480;13.348;2024-02-26T13:53:10;7.07;;;5.78;;
7263;SDS011;3673;52.480;13.348;2024-02-26T13:55:38;10.63;;;6.22;;
7263;SDS011;3673;52.480;13.348;2024-02-26T13:58:08;9.80;;;5.30;;
7263;SDS011;3673;52.480;13.348;2024-02-26T14:00:37;9.90;;;5.10;;
7263;SDS011;3673;52.480;13.348;2024-02-26T14:03:04;7.50;;;4.38;;
7263;SDS011;3673;52.480;13.348;2024-02-26T14:05:31;7.22;;;4.93;;
7263;SDS011;3673;52.480;13.348;2024-02-26T14:07:57;8.45;;;5.55;;
7263;SDS011;3673;52.480;13.348;2024-02-26T14:10:24;8.82;;;5.90;;
7263;SDS011;3673;52.480;13.348;2024-02-26T14:12:52;13.00;;;8.75;;
7263;SDS011;3673;52.480;13.348;2024-02-26T14:15:19;11.07;;;6.30;;
7263;SDS011;3673;52.480;13.348;2024-02-26T14:17:46;8.13;;;5.50;;
7263;SDS011;3673;52.480;13.348;2024-02-26T14:20:18;8.50;;;5.55;;
7263;SDS011;3673;52.480;13.348;2024-02-26T14:22:45;6.40;;;4.63;;
7263;SDS011;3673;52.480;13.348;2024-02-26T14:25:12;9.23;;;5.30;;
7263;SDS011;3673;52.480;13.348;2024-02-26T14:27:39;10.48;;;5.13;;
7263;SDS011;3673;52.480;13.348;2024-02-26T14:30:08;9.73;;;6.90;;
7263;SDS011;3673;52.480;13.348;2024-02-26T14:32:35;8.82;;;4.97;;
7263;SDS011;3673;52.480;13.348;2024-02-26T14:35:03;8.73;;;5.53;;
7263;SDS011;3673;52.480;13.348;2024-02-26T14:37:32;8.95;;;5.40;;
7263;SDS011;3673;52.480;13.348;2024-02-26T14:39:59;9.05;;;5.57;;
7263;SDS011;3673;52.480;13.348;2024-02-26T14:42:26;8.63;;;5.68;;
7263;SDS011;3673;52.480;13.348;2024-02-26T14:44:51;8.27;;;5.93;;
7263;SDS011;3673;52.480;13.348;2024-02-26T14:47:19;10.77;;;6.47;;
7263;SDS011;3673;52.480;13.348;2024-02-26T14:49:46;9.82;;;6.72;;
7263;SDS011;3673;52.480;13.348;2024-02-26T14:52:13;8.57;;;6.13;;